createdAt,value
2023-02-03T00:00:34.219Z,9.70
2023-02-03T00:03:02.511Z,15.40
2023-02-03T00:05:31.210Z,9.90
2023-02-03T00:08:00.160Z,14.10
2023-02-03T00:10:28.702Z,9.90
2023-02-03T00:12:57.986Z,8.90
2023-02-03T00:15:27.139Z,9.20
2023-02-03T00:17:55.402Z,9.20
2023-02-03T00:20:23.899Z,9.00
2023-02-03T00:22:52.635Z,11.90
2023-02-03T00:25:21.683Z,16.30
2023-02-03T00:27:50.262Z,9.00
2023-02-03T00:30:18.634Z,7.90
2023-02-03T00:32:46.866Z,12.60
2023-02-03T00:35:15.187Z,10.60
2023-02-03T00:37:43.577Z,11.20
2023-02-03T00:40:12.864Z,9.50
2023-02-03T00:42:41.441Z,15.80
2023-02-03T00:45:10.231Z,8.90
2023-02-03T00:47:38.386Z,18.20
2023-02-03T00:50:07.463Z,8.10
2023-02-03T00:52:37.136Z,7.90
2023-02-03T00:55:05.811Z,9.50
2023-02-03T00:57:34.172Z,15.60
2023-02-03T01:00:02.565Z,15.80
2023-02-03T01:02:30.792Z,8.70
2023-02-03T01:04:58.980Z,10.90
2023-02-03T01:07:28.934Z,10.80
2023-02-03T01:09:57.241Z,16.30
2023-02-03T01:12:25.606Z,11.10
2023-02-03T01:14:53.945Z,7.80
2023-02-03T01:17:22.234Z,9.60
2023-02-03T01:19:53.381Z,14.30
2023-02-03T01:22:21.961Z,13.50
2023-02-03T01:24:51.187Z,16.80
2023-02-03T01:27:19.482Z,9.80
2023-02-03T01:29:47.527Z,10.00
2023-02-03T01:32:16.092Z,16.60
2023-02-03T01:34:44.471Z,10.20
2023-02-03T01:37:14.610Z,15.30
2023-02-03T01:39:43.609Z,16.50
2023-02-03T01:42:13.295Z,8.90
2023-02-03T01:44:51.207Z,12.10
2023-02-03T01:47:55.421Z,8.50
2023-02-03T01:50:35.059Z,13.40
2023-02-03T01:53:05.540Z,7.20
2023-02-03T01:55:38.948Z,8.20
2023-02-03T01:58:22.340Z,15.10
2023-02-03T02:00:50.801Z,12.60
2023-02-03T02:03:19.897Z,10.40
2023-02-03T02:05:53.598Z,9.90
2023-02-03T02:08:23.320Z,10.80
2023-02-03T02:10:51.817Z,11.70
2023-02-03T02:13:20.770Z,12.70
2023-02-03T02:16:12.239Z,9.80
2023-02-03T02:18:50.247Z,9.10
2023-02-03T02:21:37.216Z,9.40
2023-02-03T02:24:43.492Z,8.70
2023-02-03T02:27:31.657Z,11.40
2023-02-03T02:30:24.782Z,11.30
2023-02-03T02:32:59.984Z,13.20
2023-02-03T02:38:26.180Z,8.30
2023-02-03T02:41:16.677Z,7.90
2023-02-03T02:44:18.708Z,11.10
2023-02-03T02:46:48.771Z,10.80
2023-02-03T02:49:20.320Z,9.10
2023-02-03T02:51:48.819Z,10.20
2023-02-03T02:54:22.759Z,9.80
2023-02-03T02:56:54.861Z,8.10
2023-02-03T02:59:23.358Z,11.00
2023-02-03T03:01:52.207Z,7.20
2023-02-03T03:04:23.433Z,9.60
2023-02-03T03:06:56.278Z,14.70
2023-02-03T03:09:27.847Z,9.90
2023-02-03T03:12:01.425Z,11.80
2023-02-03T03:14:30.632Z,12.50
2023-02-03T03:17:05.461Z,8.80
2023-02-03T03:19:35.997Z,10.50
2023-02-03T03:22:06.213Z,11.50
2023-02-03T03:24:39.916Z,11.20
2023-02-03T03:27:25.319Z,11.00
2023-02-03T03:30:13.539Z,11.00
2023-02-03T03:32:41.798Z,10.30
2023-02-03T03:35:10.510Z,13.30
2023-02-03T03:37:46.118Z,17.70
2023-02-03T03:40:20.697Z,9.70
2023-02-03T03:42:55.239Z,10.50
2023-02-03T03:45:32.387Z,19.70
2023-02-03T03:48:08.011Z,10.30
2023-02-03T03:50:42.147Z,12.00
2023-02-03T03:53:10.811Z,11.30
2023-02-03T03:55:39.038Z,18.30
2023-02-03T03:58:20.084Z,10.30
2023-02-03T04:00:48.300Z,9.90
2023-02-03T04:03:24.962Z,11.40
2023-02-03T04:05:53.077Z,8.70
2023-02-03T04:08:21.838Z,8.00
2023-02-03T04:10:50.178Z,10.90
2023-02-03T04:13:20.722Z,11.40
2023-02-03T04:15:48.813Z,14.50
2023-02-03T04:18:17.307Z,7.80
2023-02-03T04:20:45.850Z,24.40
2023-02-03T04:23:14.080Z,10.40
2023-02-03T04:25:42.515Z,8.20
2023-02-03T04:28:10.829Z,13.50
2023-02-03T04:30:39.028Z,10.80
2023-02-03T04:33:08.178Z,14.00
2023-02-03T04:35:37.856Z,10.10
2023-02-03T04:38:06.029Z,18.50
2023-02-03T04:40:35.224Z,11.80
2023-02-03T04:43:08.041Z,11.70
2023-02-03T04:45:37.025Z,9.60
2023-02-03T04:48:05.717Z,14.30
2023-02-03T04:50:34.182Z,9.30
2023-02-03T04:53:03.785Z,9.80
2023-02-03T04:55:32.324Z,10.80
2023-02-03T04:58:01.302Z,16.80
2023-02-03T05:00:30.059Z,10.80
2023-02-03T05:02:59.622Z,23.60
2023-02-03T05:05:27.926Z,9.70
2023-02-03T05:07:57.638Z,19.40
2023-02-03T05:10:26.164Z,16.20
2023-02-03T05:12:55.937Z,14.40
2023-02-03T05:15:24.618Z,9.80
2023-02-03T05:17:53.828Z,18.00
2023-02-03T05:20:22.299Z,11.20
2023-02-03T05:22:51.559Z,11.60
2023-02-03T05:25:19.772Z,12.50
2023-02-03T05:27:47.983Z,10.10
2023-02-03T05:30:16.544Z,11.40
2023-02-03T05:32:45.597Z,11.20
2023-02-03T05:35:13.913Z,18.40
2023-02-03T05:37:45.140Z,13.80
2023-02-03T05:40:32.725Z,18.70
2023-02-03T05:43:02.396Z,9.90
2023-02-03T05:45:31.841Z,11.80
2023-02-03T05:48:00.068Z,12.10
2023-02-03T05:50:33.370Z,14.80
2023-02-03T05:53:09.734Z,14.30
2023-02-03T05:55:38.226Z,13.50
2023-02-03T05:58:06.901Z,22.10
2023-02-03T06:00:36.519Z,10.70
2023-02-03T06:03:05.084Z,12.70
2023-02-03T06:05:33.966Z,15.30
2023-02-03T06:08:02.059Z,16.30
2023-02-03T06:10:30.550Z,13.70
2023-02-03T06:12:59.322Z,12.40
2023-02-03T06:15:27.700Z,12.40
2023-02-03T06:17:56.229Z,12.40
2023-02-03T06:20:24.460Z,22.70
2023-02-03T06:22:53.046Z,13.30
2023-02-03T06:25:21.205Z,12.60
2023-02-03T06:27:49.818Z,14.10
2023-02-03T06:30:18.288Z,16.30
2023-02-03T06:32:48.103Z,12.20
2023-02-03T06:35:16.474Z,14.30
2023-02-03T06:37:45.063Z,12.90
2023-02-03T06:40:13.437Z,14.00
2023-02-03T06:42:45.935Z,15.10
2023-02-03T06:45:14.819Z,13.50
2023-02-03T06:47:44.107Z,19.50
2023-02-03T06:50:13.713Z,14.50
2023-02-03T06:52:42.606Z,23.50
2023-02-03T06:55:11.018Z,13.20
2023-02-03T06:57:46.124Z,15.80
2023-02-03T07:00:18.635Z,10.70
2023-02-03T07:02:50.694Z,22.00
2023-02-03T07:05:19.051Z,22.20
2023-02-03T07:07:47.417Z,12.10
2023-02-03T07:10:17.540Z,23.30
2023-02-03T07:12:46.539Z,12.50
2023-02-03T07:15:15.017Z,13.90
2023-02-03T07:17:43.507Z,22.60
2023-02-03T07:20:12.284Z,12.50
2023-02-03T07:22:42.528Z,20.70
2023-02-03T07:25:10.894Z,24.10
2023-02-03T07:27:39.449Z,14.00
2023-02-03T07:30:09.412Z,21.80
2023-02-03T07:32:38.058Z,15.60
2023-02-03T07:35:06.592Z,22.30
2023-02-03T07:50:10.929Z,12.40
2023-02-03T07:52:37.823Z,21.20
2023-02-03T07:55:05.288Z,19.60
2023-02-03T07:57:32.308Z,19.70
2023-02-03T07:59:59.160Z,25.40
2023-02-03T08:02:26.421Z,20.00
2023-02-03T08:04:53.480Z,14.70
2023-02-03T08:07:20.516Z,12.20
2023-02-03T08:09:48.597Z,16.50
2023-02-03T08:12:15.738Z,13.30
2023-02-03T08:14:42.791Z,12.20
2023-02-03T08:17:10.145Z,11.30
2023-02-03T08:19:36.969Z,15.90
2023-02-03T08:22:03.730Z,12.10
2023-02-03T08:24:30.670Z,14.40
2023-02-03T08:26:57.619Z,6.40
2023-02-03T08:29:24.766Z,8.60
2023-02-03T08:31:51.799Z,6.60
2023-02-03T08:34:18.761Z,8.70
2023-02-03T08:36:47.546Z,12.60
2023-02-03T08:39:14.355Z,7.40
2023-02-03T08:41:41.614Z,9.80
2023-02-03T08:44:09.205Z,8.90
2023-02-03T08:46:37.070Z,9.70
2023-02-03T08:49:04.023Z,10.00
2023-02-03T08:51:30.862Z,7.60
2023-02-03T08:53:57.619Z,7.00
2023-02-03T08:56:25.992Z,7.40
2023-02-03T08:58:55.088Z,6.50
2023-02-03T09:01:22.775Z,7.10
2023-02-03T09:03:49.793Z,6.70
2023-02-03T09:06:16.617Z,7.20
2023-02-03T09:08:45.504Z,6.10
2023-02-03T09:11:13.901Z,5.10
2023-02-03T09:13:45.379Z,8.70
2023-02-03T09:16:13.149Z,5.20
2023-02-03T09:18:40.209Z,5.30
2023-02-03T09:21:08.451Z,5.00
2023-02-03T09:23:36.309Z,6.20
2023-02-03T09:26:07.961Z,7.30
2023-02-03T09:28:35.013Z,6.20
2023-02-03T09:31:02.404Z,4.60
2023-02-03T09:33:30.544Z,6.70
2023-02-03T09:35:59.354Z,9.20
2023-02-03T09:38:26.922Z,5.80
2023-02-03T09:41:10.437Z,9.90
2023-02-03T09:43:41.503Z,4.60
2023-02-03T09:46:29.682Z,5.60
2023-02-03T09:48:59.627Z,5.00
2023-02-03T09:51:29.438Z,5.80
2023-02-03T09:54:00.174Z,5.90
2023-02-03T09:56:29.777Z,6.40
2023-02-03T09:58:56.938Z,6.60
2023-02-03T10:01:25.545Z,6.50
2023-02-03T10:03:58.217Z,6.70
2023-02-03T10:06:35.707Z,6.50
2023-02-03T10:09:23.999Z,7.70
2023-02-03T10:12:07.991Z,6.10
2023-02-03T10:14:35.029Z,6.80
2023-02-03T10:17:17.024Z,5.70
2023-02-03T10:19:45.913Z,8.20
2023-02-03T10:22:16.689Z,11.10
2023-02-03T10:25:08.073Z,6.60
2023-02-03T10:27:35.664Z,8.80
2023-02-03T10:30:15.901Z,9.00
2023-02-03T10:32:44.444Z,7.50
2023-02-03T10:35:12.216Z,7.20
2023-02-03T10:50:14.307Z,9.00
2023-02-03T10:52:41.146Z,10.50
2023-02-03T10:55:30.497Z,7.80
2023-02-03T10:57:57.576Z,7.50
2023-02-03T11:00:31.982Z,10.10
2023-02-03T11:03:08.536Z,10.60
2023-02-03T11:05:36.395Z,8.00
2023-02-03T11:08:03.509Z,6.80
2023-02-03T11:10:37.386Z,6.90
2023-02-03T11:13:24.333Z,8.50
2023-02-03T11:16:03.673Z,7.30
2023-02-03T11:18:39.790Z,5.10
2023-02-03T11:21:11.656Z,6.10
2023-02-03T11:23:52.729Z,7.90
2023-02-03T11:26:22.334Z,4.20
2023-02-03T11:28:50.835Z,7.10
2023-02-03T11:31:23.185Z,5.10
2023-02-03T11:33:53.066Z,7.50
2023-02-03T11:36:19.951Z,5.90
2023-02-03T11:38:47.097Z,8.70
2023-02-03T11:41:19.998Z,7.40
2023-02-03T11:43:47.167Z,6.80
2023-02-03T11:46:14.038Z,5.80
2023-02-03T11:48:59.973Z,7.40
2023-02-03T11:52:01.231Z,8.00
2023-02-03T11:54:46.291Z,6.30
2023-02-03T11:57:19.489Z,5.00
2023-02-03T12:00:03.747Z,6.90
2023-02-03T12:02:57.627Z,7.50
2023-02-03T12:05:46.783Z,14.00
2023-02-03T12:08:32.572Z,4.70
2023-02-03T12:11:24.185Z,6.30
2023-02-03T12:14:10.386Z,4.40
2023-02-03T12:16:51.036Z,5.60
2023-02-03T12:19:43.810Z,6.90
2023-02-03T12:22:49.457Z,4.90
2023-02-03T12:25:32.485Z,6.30
2023-02-03T12:28:33.801Z,5.20
2023-02-03T12:31:28.873Z,6.70
2023-02-03T12:34:14.521Z,5.50
2023-02-03T12:36:53.109Z,4.30
2023-02-03T12:39:27.313Z,4.40
2023-02-03T12:41:58.807Z,4.40
2023-02-03T12:44:30.593Z,5.70
2023-02-03T12:47:17.891Z,5.10
2023-02-03T12:49:51.080Z,4.30
2023-02-03T12:52:22.758Z,3.70
2023-02-03T12:54:52.345Z,4.70
2023-02-03T12:57:27.746Z,7.50
2023-02-03T13:00:11.540Z,4.40
2023-02-03T13:02:54.401Z,6.60
2023-02-03T13:05:24.487Z,6.40
2023-02-03T13:08:15.055Z,5.30
2023-02-03T13:10:52.560Z,9.90
2023-02-03T13:13:42.964Z,24.80
2023-02-03T13:16:10.326Z,26.60
2023-02-03T13:18:38.356Z,29.30
2023-02-03T13:21:05.138Z,55.30
2023-02-03T13:23:32.286Z,19.30
2023-02-03T13:26:11.506Z,8.50
2023-02-03T13:29:10.710Z,7.40
2023-02-03T13:31:49.703Z,4.80
2023-02-03T13:34:20.895Z,5.00
2023-02-03T13:36:58.857Z,8.40
2023-02-03T13:39:59.886Z,7.50
2023-02-03T13:43:00.027Z,4.10
2023-02-03T13:45:44.663Z,6.10
2023-02-03T13:48:21.453Z,6.10
2023-02-03T13:50:51.173Z,5.10
2023-02-03T13:53:20.947Z,6.70
2023-02-03T13:55:57.897Z,7.90
2023-02-03T13:58:29.958Z,8.30
2023-02-03T14:01:00.039Z,8.00
2023-02-03T14:03:26.995Z,6.70
2023-02-03T14:05:56.530Z,9.90
2023-02-03T14:08:29.238Z,5.30
2023-02-03T14:11:34.553Z,6.90
2023-02-03T14:14:07.927Z,4.20
2023-02-03T14:16:38.850Z,5.10
2023-02-03T14:19:13.569Z,5.60
2023-02-03T14:21:51.013Z,4.60
2023-02-03T14:24:18.487Z,4.60
2023-02-03T14:26:50.235Z,6.90
2023-02-03T14:29:25.323Z,4.40
2023-02-03T14:31:57.209Z,6.00
2023-02-03T14:34:34.517Z,5.40
2023-02-03T14:37:23.944Z,5.10
2023-02-03T14:40:48.643Z,5.20
2023-02-03T14:43:34.805Z,4.30
2023-02-03T14:46:20.639Z,4.70
2023-02-03T14:49:10.089Z,3.60
2023-02-03T14:51:52.255Z,7.40
2023-02-03T14:54:21.758Z,7.10
2023-02-03T14:57:19.089Z,4.80
2023-02-03T15:00:07.257Z,5.40
2023-02-03T15:02:35.603Z,4.80
2023-02-03T15:05:11.671Z,4.80
2023-02-03T15:07:45.921Z,5.10
2023-02-03T15:10:17.018Z,3.90
2023-02-03T15:12:48.510Z,11.00
2023-02-03T15:15:21.596Z,6.70
2023-02-03T15:17:56.895Z,6.10
2023-02-03T15:20:34.816Z,10.50
2023-02-03T15:23:02.701Z,7.20
2023-02-03T15:25:30.279Z,17.70
2023-02-03T15:28:11.722Z,28.40
2023-02-03T15:30:38.806Z,24.60
2023-02-03T15:33:07.731Z,37.70
2023-02-03T15:35:36.036Z,13.60
2023-02-03T15:38:04.552Z,12.60
2023-02-03T15:40:57.145Z,13.70
2023-02-03T15:46:48.392Z,16.80
2023-02-03T15:49:39.252Z,6.80
2023-02-03T15:52:10.863Z,5.00
2023-02-03T15:54:46.214Z,6.60
2023-02-03T15:57:28.554Z,5.60
2023-02-03T16:00:02.059Z,4.70
2023-02-03T16:02:43.116Z,5.10
2023-02-03T16:05:30.356Z,8.10
2023-02-03T16:08:29.608Z,4.20
2023-02-03T16:10:59.817Z,4.10
2023-02-03T16:13:29.440Z,6.80
2023-02-03T16:16:02.262Z,7.90
2023-02-03T16:18:30.850Z,5.70
2023-02-03T16:20:58.992Z,5.50
2023-02-03T16:23:29.812Z,6.60
2023-02-03T16:26:13.405Z,11.50
2023-02-03T16:29:00.719Z,8.00
2023-02-03T16:31:50.413Z,10.20
2023-02-03T16:34:38.129Z,7.20
2023-02-03T16:37:32.414Z,4.30
2023-02-03T16:40:19.840Z,6.30
2023-02-03T16:43:08.202Z,5.30
2023-02-03T16:45:55.237Z,5.90
2023-02-03T16:48:42.423Z,6.90
2023-02-03T16:51:16.068Z,5.10
2023-02-03T16:53:45.713Z,6.40
2023-02-03T16:56:14.219Z,10.20
2023-02-03T16:58:42.593Z,8.10
2023-02-03T17:01:11.869Z,5.60
2023-02-03T17:03:40.068Z,6.20
2023-02-03T17:06:11.417Z,5.40
2023-02-03T17:08:39.970Z,5.50
2023-02-03T17:11:16.826Z,7.30
2023-02-03T17:13:46.032Z,4.80
2023-02-03T17:16:16.842Z,6.90
2023-02-03T17:18:46.504Z,6.20
2023-02-03T17:21:17.662Z,6.70
2023-02-03T17:23:46.260Z,6.80
2023-02-03T17:26:14.729Z,6.70
2023-02-03T17:28:43.368Z,5.70
2023-02-03T17:31:16.632Z,8.40
2023-02-03T17:33:45.160Z,8.40
2023-02-03T17:36:15.100Z,8.80
2023-02-03T19:01:43.793Z,5.30
2023-02-03T19:04:14.112Z,5.00
2023-02-03T19:06:45.724Z,4.60
2023-02-03T19:09:19.679Z,11.30
2023-02-03T19:11:48.044Z,5.70
2023-02-03T19:14:17.026Z,5.10
2023-02-03T19:16:45.641Z,6.00
2023-02-03T19:19:16.828Z,5.90
2023-02-03T19:21:51.322Z,5.30
2023-02-03T19:24:20.647Z,7.20
2023-02-03T19:26:55.898Z,4.80
2023-02-03T19:29:25.097Z,6.90
2023-02-03T19:31:53.985Z,5.50
2023-02-03T19:34:23.331Z,8.60
2023-02-03T19:36:52.994Z,4.70
2023-02-03T19:39:22.044Z,5.80
2023-02-03T19:41:50.657Z,4.30
2023-02-03T19:44:19.111Z,5.40
2023-02-03T19:46:48.124Z,5.30
2023-02-03T19:49:25.534Z,7.50
2023-02-03T19:52:09.765Z,5.60
2023-02-03T19:54:38.995Z,5.20
2023-02-03T19:57:12.400Z,6.20
2023-02-03T19:59:41.554Z,6.30
2023-02-03T20:02:14.310Z,4.40
2023-02-03T20:04:47.307Z,8.10
2023-02-03T20:07:30.767Z,6.60
2023-02-03T20:10:00.641Z,7.20
2023-02-03T20:12:31.913Z,7.50
2023-02-03T20:15:02.936Z,8.00
2023-02-03T20:17:34.140Z,5.20
2023-02-03T20:20:02.490Z,8.60
2023-02-03T20:22:32.052Z,7.70
2023-02-03T20:25:00.497Z,9.30
2023-02-03T20:27:29.262Z,8.90
2023-02-03T20:29:57.550Z,5.70
2023-02-03T20:32:26.223Z,7.00
2023-02-03T20:34:54.458Z,7.20
2023-02-03T20:37:23.990Z,5.90
2023-02-03T20:39:52.334Z,6.70
2023-02-03T20:42:20.763Z,7.30
2023-02-03T20:44:48.999Z,5.40
2023-02-03T20:47:19.025Z,6.50
2023-02-03T20:49:48.158Z,5.40
2023-02-03T20:52:18.290Z,5.10
2023-02-03T20:54:48.111Z,6.00
2023-02-03T20:57:18.494Z,5.40
2023-02-03T20:59:46.970Z,8.20
2023-02-03T21:02:33.796Z,6.20
2023-02-03T21:05:02.807Z,5.80
2023-02-03T21:07:31.284Z,5.50
2023-02-03T21:10:00.411Z,5.50
2023-02-03T21:12:29.414Z,6.80
2023-02-03T21:14:58.087Z,8.40
2023-02-03T21:17:26.853Z,5.60
2023-02-03T21:19:55.259Z,6.30
2023-02-03T21:22:27.030Z,7.20
2023-02-03T21:25:00.176Z,6.40
2023-02-03T21:27:31.172Z,5.30
2023-02-03T21:30:01.520Z,6.40
2023-02-03T21:32:36.914Z,5.70
2023-02-03T21:35:25.095Z,8.50
2023-02-03T21:37:57.387Z,6.30
2023-02-03T21:40:27.877Z,7.40
2023-02-03T21:42:58.776Z,6.00
2023-02-03T21:45:41.531Z,11.30
2023-02-03T21:48:27.230Z,6.00
2023-02-03T21:50:57.052Z,7.40
2023-02-03T21:53:26.467Z,8.00
2023-02-03T22:10:11.234Z,6.10
2023-02-03T22:12:38.214Z,6.20
2023-02-03T22:15:09.051Z,5.90
2023-02-03T22:17:36.224Z,11.00
2023-02-03T22:20:03.353Z,9.70
2023-02-03T22:22:31.320Z,8.20
2023-02-03T22:24:59.072Z,8.30
2023-02-03T22:27:25.857Z,9.20
2023-02-03T22:29:55.783Z,6.50
2023-02-03T22:32:23.406Z,6.70
2023-02-03T22:34:54.655Z,6.40
2023-02-03T22:37:22.450Z,5.70
2023-02-03T22:39:49.466Z,8.70
2023-02-03T22:42:17.020Z,7.40
2023-02-03T22:44:43.806Z,6.90
2023-02-03T22:47:10.909Z,7.20
2023-02-03T22:49:37.934Z,6.60
2023-02-03T22:52:05.023Z,7.40
2023-02-03T22:54:33.298Z,8.50
2023-02-03T22:57:00.074Z,8.00
2023-02-03T22:59:26.932Z,6.80
2023-02-03T23:01:53.912Z,24.60
2023-02-03T23:04:22.314Z,38.40
2023-02-03T23:06:49.544Z,15.60
2023-02-03T23:09:16.801Z,11.00
2023-02-03T23:11:43.641Z,8.70
2023-02-03T23:14:11.716Z,10.20
2023-02-03T23:16:39.172Z,9.00
2023-02-03T23:19:06.322Z,9.30
2023-02-03T23:21:33.475Z,6.30
2023-02-03T23:24:00.480Z,10.70
2023-02-03T23:26:27.468Z,8.10
2023-02-03T23:28:54.516Z,8.60
2023-02-03T23:31:21.519Z,7.80
2023-02-03T23:34:07.334Z,8.50
2023-02-03T23:36:34.399Z,8.40
2023-02-03T23:39:01.664Z,5.50
2023-02-03T23:41:29.213Z,7.60
2023-02-03T23:43:56.236Z,7.60
2023-02-03T23:46:23.543Z,6.30
2023-02-03T23:48:50.763Z,7.60
2023-02-03T23:51:17.707Z,10.60
2023-02-03T23:53:44.431Z,7.60
2023-02-03T23:56:13.238Z,11.90
2023-02-03T23:58:40.182Z,5.10
